sensor_id;sensor_type;location;lat;lon;timestamp;P1;durP1;ratioP1;P2;durP2;ratioP2
57111;SDS011;42992;49.084;19.300;2023-02-28T00:00:02;28.30;;;14.55;;
57111;SDS011;42992;49.084;19.300;2023-02-28T00:02:34;27.63;;;14.65;;
57111;SDS011;42992;49.084;19.300;2023-02-28T00:05:00;37.17;;;17.20;;
57111;SDS011;42992;49.084;19.300;2023-02-28T00:07:28;38.97;;;17.25;;
57111;SDS011;42992;49.084;19.300;2023-02-28T00:09:54;42.78;;;19.50;;
57111;SDS011;42992;49.084;19.300;2023-02-28T00:12:19;34.70;;;17.17;;
57111;SDS011;42992;49.084;19.300;2023-02-28T00:14:44;35.25;;;17.02;;
57111;SDS011;42992;49.084;19.300;2023-02-28T00:17:10;37.08;;;16.42;;
57111;SDS011;42992;49.084;19.300;2023-02-28T00:19:35;36.40;;;16.90;;
57111;SDS011;42992;49.084;19.300;2023-02-28T00:22:01;30.52;;;15.63;;
57111;SDS011;42992;49.084;19.300;2023-02-28T00:24:26;33.08;;;16.50;;
57111;SDS011;42992;49.084;19.300;2023-02-28T00:26:52;29.58;;;15.38;;
57111;SDS011;42992;49.084;19.300;2023-02-28T00:29:19;36.42;;;17.27;;
57111;SDS011;42992;49.084;19.300;2023-02-28T00:31:44;35.13;;;16.23;;
57111;SDS011;42992;49.084;19.300;2023-02-28T00:34:17;40.20;;;17.88;;
57111;SDS011;42992;49.084;19.300;2023-02-28T00:36:43;41.53;;;18.67;;
57111;SDS011;42992;49.084;19.300;2023-02-28T00:39:11;46.90;;;22.10;;
57111;SDS011;42992;49.084;19.300;2023-02-28T00:41:36;42.72;;;21.23;;
57111;SDS011;42992;49.084;19.300;2023-02-28T00:44:02;42.60;;;20.23;;
57111;SDS011;42992;49.084;19.300;2023-02-28T00:46:27;42.50;;;19.45;;
57111;SDS011;42992;49.084;19.300;2023-02-28T00:48:53;37.83;;;17.75;;
57111;SDS011;42992;49.084;19.300;2023-02-28T00:51:18;40.60;;;17.65;;
57111;SDS011;42992;49.084;19.300;2023-02-28T00:53:44;35.38;;;16.63;;
57111;SDS011;42992;49.084;19.300;2023-02-28T00:56:09;34.70;;;17.30;;
57111;SDS011;42992;49.084;19.300;2023-02-28T00:58:35;33.47;;;16.33;;
57111;SDS011;42992;49.084;19.300;2023-02-28T01:01:00;33.55;;;16.92;;
57111;SDS011;42992;49.084;19.300;2023-02-28T01:03:25;28.08;;;14.65;;
57111;SDS011;42992;49.084;19.300;2023-02-28T01:05:51;27.88;;;14.82;;
57111;SDS011;42992;49.084;19.300;2023-02-28T01:08:18;30.30;;;14.50;;
57111;SDS011;42992;49.084;19.300;2023-02-28T01:10:44;28.38;;;14.80;;
57111;SDS011;42992;49.084;19.300;2023-02-28T01:13:11;24.60;;;13.68;;
57111;SDS011;42992;49.084;19.300;2023-02-28T01:15:36;27.13;;;14.15;;
57111;SDS011;42992;49.084;19.300;2023-02-28T01:18:02;31.85;;;14.57;;
57111;SDS011;42992;49.084;19.300;2023-02-28T01:20:28;26.85;;;14.25;;
57111;SDS011;42992;49.084;19.300;2023-02-28T01:22:53;28.90;;;14.90;;
57111;SDS011;42992;49.084;19.300;2023-02-28T01:25:21;23.02;;;13.68;;
57111;SDS011;42992;49.084;19.300;2023-02-28T01:27:48;25.80;;;13.15;;
57111;SDS011;42992;49.084;19.300;2023-02-28T01:30:14;29.10;;;13.50;;
57111;SDS011;42992;49.084;19.300;2023-02-28T01:32:40;29.48;;;13.43;;
57111;SDS011;42992;49.084;19.300;2023-02-28T01:35:05;25.92;;;12.82;;
57111;SDS011;42992;49.084;19.300;2023-02-28T01:37:30;28.40;;;14.13;;
57111;SDS011;42992;49.084;19.300;2023-02-28T01:39:56;23.90;;;13.27;;
57111;SDS011;42992;49.084;19.300;2023-02-28T01:42:21;27.65;;;11.35;;
57111;SDS011;42992;49.084;19.300;2023-02-28T01:44:55;22.27;;;12.30;;
57111;SDS011;42992;49.084;19.300;2023-02-28T01:47:22;26.40;;;13.43;;
57111;SDS011;42992;49.084;19.300;2023-02-28T01:49:48;25.90;;;12.82;;
57111;SDS011;42992;49.084;19.300;2023-02-28T01:52:14;23.65;;;12.13;;
57111;SDS011;42992;49.084;19.300;2023-02-28T01:54:47;22.13;;;11.90;;
57111;SDS011;42992;49.084;19.300;2023-02-28T01:57:16;23.55;;;12.10;;
57111;SDS011;42992;49.084;19.300;2023-02-28T01:59:45;25.60;;;12.40;;
57111;SDS011;42992;49.084;19.300;2023-02-28T02:02:16;20.70;;;10.05;;
57111;SDS011;42992;49.084;19.300;2023-02-28T02:04:56;18.23;;;10.00;;
57111;SDS011;42992;49.084;19.300;2023-02-28T02:07:23;21.55;;;9.32;;
57111;SDS011;42992;49.084;19.300;2023-02-28T02:09:50;19.08;;;9.35;;
57111;SDS011;42992;49.084;19.300;2023-02-28T02:12:25;20.65;;;9.63;;
57111;SDS011;42992;49.084;19.300;2023-02-28T02:15:09;20.63;;;9.57;;
57111;SDS011;42992;49.084;19.300;2023-02-28T02:17:48;22.50;;;10.60;;
57111;SDS011;42992;49.084;19.300;2023-02-28T02:40:50;23.27;;;12.30;;
57111;SDS011;42992;49.084;19.300;2023-02-28T02:43:19;18.90;;;9.27;;
57111;SDS011;42992;49.084;19.300;2023-02-28T02:45:48;18.60;;;8.50;;
57111;SDS011;42992;49.084;19.300;2023-02-28T02:48:16;17.88;;;9.25;;
57111;SDS011;42992;49.084;19.300;2023-02-28T02:50:49;17.33;;;9.05;;
57111;SDS011;42992;49.084;19.300;2023-02-28T02:53:16;16.73;;;9.18;;
57111;SDS011;42992;49.084;19.300;2023-02-28T02:55:43;15.75;;;8.98;;
57111;SDS011;42992;49.084;19.300;2023-02-28T02:58:12;15.98;;;8.52;;
57111;SDS011;42992;49.084;19.300;2023-02-28T03:00:41;20.77;;;9.00;;
57111;SDS011;42992;49.084;19.300;2023-02-28T03:03:09;20.17;;;10.05;;
57111;SDS011;42992;49.084;19.300;2023-02-28T03:05:39;18.70;;;8.80;;
57111;SDS011;42992;49.084;19.300;2023-02-28T03:08:07;17.85;;;9.05;;
57111;SDS011;42992;49.084;19.300;2023-02-28T03:10:39;22.20;;;9.45;;
57111;SDS011;42992;49.084;19.300;2023-02-28T03:15:48;19.38;;;10.43;;
57111;SDS011;42992;49.084;19.300;2023-02-28T03:23:45;20.15;;;10.20;;
57111;SDS011;42992;49.084;19.300;2023-02-28T03:26:18;20.63;;;10.00;;
57111;SDS011;42992;49.084;19.300;2023-02-28T03:33:38;19.80;;;9.85;;
57111;SDS011;42992;49.084;19.300;2023-02-28T03:36:15;26.38;;;10.25;;
57111;SDS011;42992;49.084;19.300;2023-02-28T03:38:53;18.70;;;9.15;;
57111;SDS011;42992;49.084;19.300;2023-02-28T03:41:21;20.60;;;9.77;;
57111;SDS011;42992;49.084;19.300;2023-02-28T03:43:50;25.52;;;8.90;;
57111;SDS011;42992;49.084;19.300;2023-02-28T03:46:18;16.58;;;8.63;;
57111;SDS011;42992;49.084;19.300;2023-02-28T03:48:51;22.45;;;8.88;;
57111;SDS011;42992;49.084;19.300;2023-02-28T03:51:20;20.13;;;9.13;;
57111;SDS011;42992;49.084;19.300;2023-02-28T03:53:50;17.67;;;9.38;;
57111;SDS011;42992;49.084;19.300;2023-02-28T03:56:19;20.20;;;9.73;;
57111;SDS011;42992;49.084;19.300;2023-02-28T03:58:55;20.00;;;8.57;;
57111;SDS011;42992;49.084;19.300;2023-02-28T04:01:25;21.45;;;9.05;;
57111;SDS011;42992;49.084;19.300;2023-02-28T04:03:52;26.40;;;10.30;;
57111;SDS011;42992;49.084;19.300;2023-02-28T04:06:20;26.67;;;9.48;;
57111;SDS011;42992;49.084;19.300;2023-02-28T04:08:46;25.48;;;9.57;;
57111;SDS011;42992;49.084;19.300;2023-02-28T04:11:34;24.92;;;10.73;;
57111;SDS011;42992;49.084;19.300;2023-02-28T04:13:57;19.80;;;9.48;;
57111;SDS011;42992;49.084;19.300;2023-02-28T04:16:23;17.25;;;8.50;;
57111;SDS011;42992;49.084;19.300;2023-02-28T04:18:48;19.27;;;8.77;;
57111;SDS011;42992;49.084;19.300;2023-02-28T04:21:14;19.92;;;9.32;;
57111;SDS011;42992;49.084;19.300;2023-02-28T04:23:40;21.55;;;10.55;;
57111;SDS011;42992;49.084;19.300;2023-02-28T04:26:06;24.98;;;12.45;;
57111;SDS011;42992;49.084;19.300;2023-02-28T04:28:32;34.05;;;11.75;;
57111;SDS011;42992;49.084;19.300;2023-02-28T04:30:59;23.02;;;11.02;;
57111;SDS011;42992;49.084;19.300;2023-02-28T04:33:26;27.38;;;10.18;;
57111;SDS011;42992;49.084;19.300;2023-02-28T04:35:58;23.20;;;11.18;;
57111;SDS011;42992;49.084;19.300;2023-02-28T04:38:24;23.08;;;11.32;;
57111;SDS011;42992;49.084;19.300;2023-02-28T04:40:50;21.92;;;10.55;;
57111;SDS011;42992;49.084;19.300;2023-02-28T04:43:15;27.80;;;10.02;;
57111;SDS011;42992;49.084;19.300;2023-02-28T04:45:42;25.83;;;11.63;;
57111;SDS011;42992;49.084;19.300;2023-02-28T04:48:07;23.80;;;10.65;;
57111;SDS011;42992;49.084;19.300;2023-02-28T04:50:32;22.90;;;12.43;;
57111;SDS011;42992;49.084;19.300;2023-02-28T04:52:58;31.88;;;12.88;;
57111;SDS011;42992;49.084;19.300;2023-02-28T04:55:23;39.05;;;13.23;;
57111;SDS011;42992;49.084;19.300;2023-02-28T04:57:49;32.95;;;14.88;;
57111;SDS011;42992;49.084;19.300;2023-02-28T05:00:14;29.58;;;15.27;;
57111;SDS011;42992;49.084;19.300;2023-02-28T05:02:41;36.97;;;15.35;;
57111;SDS011;42992;49.084;19.300;2023-02-28T05:05:09;38.42;;;18.65;;
57111;SDS011;42992;49.084;19.300;2023-02-28T05:07:35;62.85;;;35.55;;
57111;SDS011;42992;49.084;19.300;2023-02-28T05:10:01;43.22;;;23.08;;
57111;SDS011;42992;49.084;19.300;2023-02-28T05:12:27;38.50;;;20.00;;
57111;SDS011;42992;49.084;19.300;2023-02-28T05:14:53;40.75;;;19.25;;
57111;SDS011;42992;49.084;19.300;2023-02-28T05:17:18;40.45;;;18.98;;
57111;SDS011;42992;49.084;19.300;2023-02-28T05:19:44;38.05;;;18.80;;
57111;SDS011;42992;49.084;19.300;2023-02-28T05:22:14;39.05;;;18.42;;
57111;SDS011;42992;49.084;19.300;2023-02-28T05:24:40;42.42;;;20.48;;
57111;SDS011;42992;49.084;19.300;2023-02-28T05:27:07;44.20;;;19.88;;
57111;SDS011;42992;49.084;19.300;2023-02-28T05:29:33;54.35;;;19.48;;
57111;SDS011;42992;49.084;19.300;2023-02-28T05:31:59;41.58;;;19.30;;
57111;SDS011;42992;49.084;19.300;2023-02-28T05:34:25;30.83;;;15.02;;
57111;SDS011;42992;49.084;19.300;2023-02-28T05:36:50;35.53;;;18.05;;
57111;SDS011;42992;49.084;19.300;2023-02-28T05:39:16;44.08;;;17.83;;
57111;SDS011;42992;49.084;19.300;2023-02-28T05:41:42;30.58;;;12.73;;
57111;SDS011;42992;49.084;19.300;2023-02-28T05:44:14;33.78;;;13.77;;
57111;SDS011;42992;49.084;19.300;2023-02-28T05:46:40;34.00;;;14.88;;
57111;SDS011;42992;49.084;19.300;2023-02-28T05:49:05;29.52;;;13.65;;
57111;SDS011;42992;49.084;19.300;2023-02-28T05:51:31;38.10;;;13.88;;
57111;SDS011;42992;49.084;19.300;2023-02-28T05:53:58;49.35;;;18.67;;
57111;SDS011;42992;49.084;19.300;2023-02-28T05:56:24;54.58;;;18.98;;
57111;SDS011;42992;49.084;19.300;2023-02-28T05:58:49;58.88;;;23.13;;
57111;SDS011;42992;49.084;19.300;2023-02-28T06:01:22;49.17;;;20.50;;
57111;SDS011;42992;49.084;19.300;2023-02-28T06:03:48;61.20;;;21.67;;
57111;SDS011;42992;49.084;19.300;2023-02-28T06:06:13;53.08;;;20.92;;
57111;SDS011;42992;49.084;19.300;2023-02-28T06:08:39;65.28;;;21.63;;
57111;SDS011;42992;49.084;19.300;2023-02-28T06:11:05;42.30;;;19.35;;
57111;SDS011;42992;49.084;19.300;2023-02-28T06:13:31;40.78;;;17.17;;
57111;SDS011;42992;49.084;19.300;2023-02-28T06:16:00;37.78;;;15.15;;
57111;SDS011;42992;49.084;19.300;2023-02-28T06:18:25;34.42;;;14.52;;
57111;SDS011;42992;49.084;19.300;2023-02-28T06:20:54;36.00;;;13.70;;
57111;SDS011;42992;49.084;19.300;2023-02-28T06:23:20;35.17;;;13.98;;
57111;SDS011;42992;49.084;19.300;2023-02-28T06:25:45;30.55;;;13.30;;
57111;SDS011;42992;49.084;19.300;2023-02-28T06:28:17;35.35;;;12.25;;
57111;SDS011;42992;49.084;19.300;2023-02-28T06:30:42;33.20;;;12.80;;
57111;SDS011;42992;49.084;19.300;2023-02-28T06:33:10;27.33;;;12.30;;
57111;SDS011;42992;49.084;19.300;2023-02-28T06:35:35;30.00;;;13.02;;
57111;SDS011;42992;49.084;19.300;2023-02-28T06:38:01;26.73;;;13.73;;
57111;SDS011;42992;49.084;19.300;2023-02-28T06:40:27;37.63;;;15.50;;
57111;SDS011;42992;49.084;19.300;2023-02-28T06:42:52;32.65;;;14.65;;
57111;SDS011;42992;49.084;19.300;2023-02-28T06:45:18;31.65;;;14.07;;
57111;SDS011;42992;49.084;19.300;2023-02-28T06:47:43;35.75;;;14.80;;
57111;SDS011;42992;49.084;19.300;2023-02-28T06:50:09;33.00;;;14.55;;
57111;SDS011;42992;49.084;19.300;2023-02-28T06:52:35;37.75;;;17.92;;
57111;SDS011;42992;49.084;19.300;2023-02-28T06:55:02;41.28;;;18.15;;
57111;SDS011;42992;49.084;19.300;2023-02-28T06:57:31;43.83;;;18.65;;
57111;SDS011;42992;49.084;19.300;2023-02-28T06:59:58;38.33;;;18.40;;
57111;SDS011;42992;49.084;19.300;2023-02-28T07:02:23;34.97;;;16.45;;
57111;SDS011;42992;49.084;19.300;2023-02-28T07:04:49;41.58;;;16.52;;
57111;SDS011;42992;49.084;19.300;2023-02-28T07:07:14;35.65;;;16.98;;
57111;SDS011;42992;49.084;19.300;2023-02-28T07:09:40;38.22;;;18.20;;
57111;SDS011;42992;49.084;19.300;2023-02-28T07:12:05;33.70;;;15.63;;
57111;SDS011;42992;49.084;19.300;2023-02-28T07:14:32;34.63;;;16.98;;
57111;SDS011;42992;49.084;19.300;2023-02-28T07:16:58;34.50;;;16.55;;
57111;SDS011;42992;49.084;19.300;2023-02-28T07:19:23;42.20;;;18.00;;
57111;SDS011;42992;49.084;19.300;2023-02-28T07:21:48;37.13;;;18.52;;
57111;SDS011;42992;49.084;19.300;2023-02-28T07:24:14;39.88;;;19.20;;
57111;SDS011;42992;49.084;19.300;2023-02-28T07:26:41;38.60;;;18.42;;
57111;SDS011;42992;49.084;19.300;2023-02-28T07:29:06;38.90;;;17.95;;
57111;SDS011;42992;49.084;19.300;2023-02-28T07:31:32;31.48;;;15.88;;
57111;SDS011;42992;49.084;19.300;2023-02-28T07:33:57;37.85;;;16.20;;
57111;SDS011;42992;49.084;19.300;2023-02-28T07:36:22;38.45;;;17.48;;
57111;SDS011;42992;49.084;19.300;2023-02-28T07:38:48;30.55;;;15.38;;
57111;SDS011;42992;49.084;19.300;2023-02-28T07:41:19;32.10;;;16.23;;
57111;SDS011;42992;49.084;19.300;2023-02-28T07:43:44;38.13;;;16.45;;
57111;SDS011;42992;49.084;19.300;2023-02-28T07:46:11;23.45;;;10.82;;
57111;SDS011;42992;49.084;19.300;2023-02-28T07:48:37;21.52;;;9.75;;
57111;SDS011;42992;49.084;19.300;2023-02-28T07:51:03;17.80;;;8.63;;
57111;SDS011;42992;49.084;19.300;2023-02-28T07:53:28;16.05;;;8.15;;
57111;SDS011;42992;49.084;19.300;2023-02-28T07:55:55;19.05;;;8.80;;
57111;SDS011;42992;49.084;19.300;2023-02-28T07:58:20;17.00;;;7.85;;
57111;SDS011;42992;49.084;19.300;2023-02-28T08:00:45;17.85;;;8.02;;
57111;SDS011;42992;49.084;19.300;2023-02-28T08:03:11;20.80;;;8.32;;
57111;SDS011;42992;49.084;19.300;2023-02-28T08:05:40;18.25;;;8.65;;
57111;SDS011;42992;49.084;19.300;2023-02-28T08:08:06;20.55;;;8.85;;
57111;SDS011;42992;49.084;19.300;2023-02-28T08:10:31;14.35;;;7.68;;
57111;SDS011;42992;49.084;19.300;2023-02-28T08:12:57;17.58;;;8.48;;
57111;SDS011;42992;49.084;19.300;2023-02-28T08:15:22;12.52;;;7.47;;
57111;SDS011;42992;49.084;19.300;2023-02-28T08:17:48;17.38;;;8.40;;
57111;SDS011;42992;49.084;19.300;2023-02-28T08:20:13;14.13;;;7.85;;
57111;SDS011;42992;49.084;19.300;2023-02-28T08:22:39;15.93;;;8.52;;
57111;SDS011;42992;49.084;19.300;2023-02-28T08:25:04;22.38;;;8.18;;
57111;SDS011;42992;49.084;19.300;2023-02-28T08:27:31;16.75;;;7.57;;
57111;SDS011;42992;49.084;19.300;2023-02-28T08:29:56;15.70;;;7.32;;
57111;SDS011;42992;49.084;19.300;2023-02-28T08:32:22;16.95;;;7.50;;
57111;SDS011;42992;49.084;19.300;2023-02-28T08:34:47;13.85;;;7.75;;
57111;SDS011;42992;49.084;19.300;2023-02-28T08:37:12;17.70;;;7.85;;
57111;SDS011;42992;49.084;19.300;2023-02-28T08:39:38;13.07;;;7.57;;
57111;SDS011;42992;49.084;19.300;2023-02-28T08:42:03;14.52;;;7.65;;
57111;SDS011;42992;49.084;19.300;2023-02-28T08:44:29;12.95;;;7.53;;
57111;SDS011;42992;49.084;19.300;2023-02-28T08:46:54;18.75;;;8.40;;
57111;SDS011;42992;49.084;19.300;2023-02-28T08:49:20;12.95;;;6.90;;
57111;SDS011;42992;49.084;19.300;2023-02-28T08:51:45;14.52;;;7.40;;
57111;SDS011;42992;49.084;19.300;2023-02-28T08:54:10;14.45;;;7.65;;
57111;SDS011;42992;49.084;19.300;2023-02-28T08:56:37;14.75;;;7.18;;
57111;SDS011;42992;49.084;19.300;2023-02-28T08:59:03;15.80;;;7.82;;
57111;SDS011;42992;49.084;19.300;2023-02-28T09:01:28;16.08;;;8.75;;
57111;SDS011;42992;49.084;19.300;2023-02-28T09:03:54;13.35;;;7.95;;
57111;SDS011;42992;49.084;19.300;2023-02-28T09:06:21;14.65;;;7.35;;
57111;SDS011;42992;49.084;19.300;2023-02-28T09:08:47;16.83;;;8.23;;
57111;SDS011;42992;49.084;19.300;2023-02-28T09:11:13;20.50;;;8.52;;
57111;SDS011;42992;49.084;19.300;2023-02-28T09:13:38;20.33;;;8.07;;
57111;SDS011;42992;49.084;19.300;2023-02-28T09:16:06;18.25;;;8.40;;
57111;SDS011;42992;49.084;19.300;2023-02-28T09:18:36;15.27;;;8.43;;
57111;SDS011;42992;49.084;19.300;2023-02-28T09:21:09;18.55;;;7.82;;
57111;SDS011;42992;49.084;19.300;2023-02-28T09:23:36;18.90;;;8.93;;
57111;SDS011;42992;49.084;19.300;2023-02-28T09:26:03;19.20;;;8.30;;
57111;SDS011;42992;49.084;19.300;2023-02-28T09:28:30;17.40;;;8.45;;
57111;SDS011;42992;49.084;19.300;2023-02-28T09:30:55;19.15;;;8.52;;
57111;SDS011;42992;49.084;19.300;2023-02-28T09:33:22;18.20;;;9.30;;
57111;SDS011;42992;49.084;19.300;2023-02-28T09:35:48;16.02;;;8.80;;
57111;SDS011;42992;49.084;19.300;2023-02-28T09:38:14;14.52;;;8.38;;
57111;SDS011;42992;49.084;19.300;2023-02-28T09:43:15;17.02;;;8.48;;
57111;SDS011;42992;49.084;19.300;2023-02-28T09:45:42;16.25;;;8.35;;
57111;SDS011;42992;49.084;19.300;2023-02-28T09:48:10;17.73;;;8.82;;
57111;SDS011;42992;49.084;19.300;2023-02-28T09:53:03;35.53;;;11.15;;
57111;SDS011;42992;49.084;19.300;2023-02-28T09:55:37;16.10;;;8.90;;
57111;SDS011;42992;49.084;19.300;2023-02-28T09:58:04;31.13;;;10.35;;
57111;SDS011;42992;49.084;19.300;2023-02-28T10:00:32;16.13;;;9.10;;
57111;SDS011;42992;49.084;19.300;2023-02-28T10:08:14;17.60;;;10.07;;
57111;SDS011;42992;49.084;19.300;2023-02-28T10:10:43;15.52;;;8.35;;
57111;SDS011;42992;49.084;19.300;2023-02-28T10:13:13;14.32;;;8.10;;
57111;SDS011;42992;49.084;19.300;2023-02-28T10:15:40;16.13;;;8.75;;
57111;SDS011;42992;49.084;19.300;2023-02-28T10:18:11;15.65;;;9.15;;
57111;SDS011;42992;49.084;19.300;2023-02-28T10:20:39;14.50;;;8.43;;
57111;SDS011;42992;49.084;19.300;2023-02-28T10:23:13;15.80;;;8.23;;
57111;SDS011;42992;49.084;19.300;2023-02-28T10:25:39;14.23;;;8.30;;
57111;SDS011;42992;49.084;19.300;2023-02-28T10:28:12;14.27;;;8.30;;
57111;SDS011;42992;49.084;19.300;2023-02-28T10:30:39;13.20;;;8.57;;
57111;SDS011;42992;49.084;19.300;2023-02-28T10:33:05;15.40;;;8.45;;
57111;SDS011;42992;49.084;19.300;2023-02-28T10:35:30;16.92;;;8.13;;
57111;SDS011;42992;49.084;19.300;2023-02-28T10:37:59;16.05;;;7.47;;
57111;SDS011;42992;49.084;19.300;2023-02-28T10:40:33;9.77;;;5.93;;
57111;SDS011;42992;49.084;19.300;2023-02-28T10:45:30;10.52;;;5.95;;
57111;SDS011;42992;49.084;19.300;2023-02-28T10:58:50;11.75;;;5.60;;
57111;SDS011;42992;49.084;19.300;2023-02-28T11:01:17;9.52;;;5.10;;
57111;SDS011;42992;49.084;19.300;2023-02-28T11:03:43;12.93;;;5.60;;
57111;SDS011;42992;49.084;19.300;2023-02-28T11:06:13;10.13;;;5.38;;
57111;SDS011;42992;49.084;19.300;2023-02-28T11:08:44;11.43;;;6.03;;
57111;SDS011;42992;49.084;19.300;2023-02-28T11:11:11;11.82;;;7.25;;
57111;SDS011;42992;49.084;19.300;2023-02-28T11:13:36;15.98;;;6.60;;
57111;SDS011;42992;49.084;19.300;2023-02-28T11:16:05;10.73;;;5.57;;
57111;SDS011;42992;49.084;19.300;2023-02-28T11:18:52;13.35;;;6.45;;
57111;SDS011;42992;49.084;19.300;2023-02-28T11:21:26;18.55;;;6.63;;
57111;SDS011;42992;49.084;19.300;2023-02-28T11:23:54;24.05;;;7.63;;
57111;SDS011;42992;49.084;19.300;2023-02-28T11:26:38;10.68;;;5.22;;
57111;SDS011;42992;49.084;19.300;2023-02-28T11:29:09;15.10;;;5.43;;
57111;SDS011;42992;49.084;19.300;2023-02-28T11:31:35;10.00;;;5.20;;
57111;SDS011;42992;49.084;19.300;2023-02-28T11:34:20;14.80;;;4.82;;
57111;SDS011;42992;49.084;19.300;2023-02-28T11:36:47;11.07;;;4.65;;
57111;SDS011;42992;49.084;19.300;2023-02-28T11:39:13;23.65;;;5.03;;
57111;SDS011;42992;49.084;19.300;2023-02-28T11:41:51;10.30;;;4.05;;
57111;SDS011;42992;49.084;19.300;2023-02-28T11:44:30;12.73;;;5.00;;
57111;SDS011;42992;49.084;19.300;2023-02-28T11:47:12;11.68;;;4.95;;
57111;SDS011;42992;49.084;19.300;2023-02-28T11:57:36;10.88;;;5.05;;
57111;SDS011;42992;49.084;19.300;2023-02-28T12:05:21;13.73;;;6.03;;
57111;SDS011;42992;49.084;19.300;2023-02-28T12:07:59;12.95;;;5.40;;
57111;SDS011;42992;49.084;19.300;2023-02-28T12:10:29;14.38;;;5.28;;
57111;SDS011;42992;49.084;19.300;2023-02-28T12:28:42;12.15;;;6.63;;
57111;SDS011;42992;49.084;19.300;2023-02-28T12:31:24;13.82;;;7.03;;
57111;SDS011;42992;49.084;19.300;2023-02-28T12:34:03;11.15;;;6.20;;
57111;SDS011;42992;49.084;19.300;2023-02-28T12:36:29;13.40;;;7.32;;
57111;SDS011;42992;49.084;19.300;2023-02-28T12:41:48;16.83;;;7.07;;
57111;SDS011;42992;49.084;19.300;2023-02-28T12:44:22;19.35;;;7.78;;
57111;SDS011;42992;49.084;19.300;2023-02-28T12:46:51;12.50;;;6.80;;
57111;SDS011;42992;49.084;19.300;2023-02-28T12:52:06;11.60;;;6.45;;
57111;SDS011;42992;49.084;19.300;2023-02-28T12:54:38;14.18;;;6.47;;
57111;SDS011;42992;49.084;19.300;2023-02-28T13:07:31;14.23;;;6.32;;
57111;SDS011;42992;49.084;19.300;2023-02-28T13:09:59;12.70;;;6.10;;
57111;SDS011;42992;49.084;19.300;2023-02-28T13:12:25;14.65;;;6.63;;
57111;SDS011;42992;49.084;19.300;2023-02-28T13:14:51;14.05;;;6.00;;
57111;SDS011;42992;49.084;19.300;2023-02-28T13:17:26;14.73;;;6.57;;
57111;SDS011;42992;49.084;19.300;2023-02-28T13:29:42;14.40;;;6.65;;
57111;SDS011;42992;49.084;19.300;2023-02-28T13:34:35;11.93;;;6.38;;
57111;SDS011;42992;49.084;19.300;2023-02-28T13:40:06;15.63;;;5.93;;
57111;SDS011;42992;49.084;19.300;2023-02-28T13:42:33;12.77;;;6.32;;
57111;SDS011;42992;49.084;19.300;2023-02-28T13:47:29;10.35;;;6.05;;
57111;SDS011;42992;49.084;19.300;2023-02-28T13:55:25;9.48;;;5.82;;
57111;SDS011;42992;49.084;19.300;2023-02-28T14:06:03;14.10;;;6.32;;
57111;SDS011;42992;49.084;19.300;2023-02-28T14:08:32;14.77;;;5.93;;
57111;SDS011;42992;49.084;19.300;2023-02-28T14:11:03;10.30;;;6.05;;
57111;SDS011;42992;49.084;19.300;2023-02-28T14:13:39;13.48;;;6.32;;
57111;SDS011;42992;49.084;19.300;2023-02-28T14:16:21;14.75;;;5.97;;
57111;SDS011;42992;49.084;19.300;2023-02-28T14:18:49;10.30;;;5.20;;
57111;SDS011;42992;49.084;19.300;2023-02-28T14:24:10;18.75;;;8.20;;
57111;SDS011;42992;49.084;19.300;2023-02-28T14:37:04;14.20;;;7.03;;
57111;SDS011;42992;49.084;19.300;2023-02-28T14:39:30;19.48;;;7.25;;
57111;SDS011;42992;49.084;19.300;2023-02-28T14:41:56;12.05;;;6.05;;
57111;SDS011;42992;49.084;19.300;2023-02-28T14:44:25;8.98;;;5.15;;
57111;SDS011;42992;49.084;19.300;2023-02-28T14:46:54;9.48;;;5.35;;
57111;SDS011;42992;49.084;19.300;2023-02-28T14:49:21;12.50;;;6.53;;
57111;SDS011;42992;49.084;19.300;2023-02-28T14:51:47;14.40;;;6.07;;
57111;SDS011;42992;49.084;19.300;2023-02-28T14:54:15;11.88;;;5.78;;
57111;SDS011;42992;49.084;19.300;2023-02-28T14:56:42;10.40;;;5.90;;
57111;SDS011;42992;49.084;19.300;2023-02-28T14:59:23;14.27;;;5.80;;
57111;SDS011;42992;49.084;19.300;2023-02-28T15:01:50;16.50;;;6.95;;
57111;SDS011;42992;49.084;19.300;2023-02-28T15:04:20;11.88;;;6.28;;
57111;SDS011;42992;49.084;19.300;2023-02-28T15:06:54;16.23;;;6.57;;
57111;SDS011;42992;49.084;19.300;2023-02-28T15:09:31;10.15;;;6.00;;
57111;SDS011;42992;49.084;19.300;2023-02-28T15:11:56;10.50;;;6.50;;
57111;SDS011;42992;49.084;19.300;2023-02-28T15:14:22;11.50;;;6.60;;
57111;SDS011;42992;49.084;19.300;2023-02-28T15:16:52;11.43;;;6.13;;
57111;SDS011;42992;49.084;19.300;2023-02-28T15:21:46;13.25;;;7.13;;
57111;SDS011;42992;49.084;19.300;2023-02-28T15:24:20;13.40;;;7.32;;
57111;SDS011;42992;49.084;19.300;2023-02-28T15:26:59;13.13;;;6.10;;
57111;SDS011;42992;49.084;19.300;2023-02-28T15:29:25;12.10;;;6.22;;
57111;SDS011;42992;49.084;19.300;2023-02-28T15:32:02;13.63;;;6.82;;
57111;SDS011;42992;49.084;19.300;2023-02-28T15:36:59;14.82;;;7.40;;
57111;SDS011;42992;49.084;19.300;2023-02-28T15:39:27;18.00;;;7.68;;
57111;SDS011;42992;49.084;19.300;2023-02-28T15:42:09;15.80;;;7.95;;
57111;SDS011;42992;49.084;19.300;2023-02-28T15:44:35;16.80;;;7.78;;
57111;SDS011;42992;49.084;19.300;2023-02-28T15:49:26;22.52;;;9.43;;
57111;SDS011;42992;49.084;19.300;2023-02-28T15:51:53;23.65;;;10.55;;
57111;SDS011;42992;49.084;19.300;2023-02-28T15:54:20;16.92;;;8.52;;
57111;SDS011;42992;49.084;19.300;2023-02-28T15:56:47;19.20;;;9.60;;
57111;SDS011;42992;49.084;19.300;2023-02-28T15:59:22;15.18;;;7.97;;
57111;SDS011;42992;49.084;19.300;2023-02-28T16:04:34;16.90;;;8.90;;
57111;SDS011;42992;49.084;19.300;2023-02-28T16:07:03;22.33;;;10.50;;
57111;SDS011;42992;49.084;19.300;2023-02-28T16:09:29;20.55;;;9.77;;
57111;SDS011;42992;49.084;19.300;2023-02-28T16:11:56;25.27;;;10.52;;
57111;SDS011;42992;49.084;19.300;2023-02-28T16:14:25;18.00;;;8.75;;
57111;SDS011;42992;49.084;19.300;2023-02-28T16:16:53;15.13;;;7.60;;
57111;SDS011;42992;49.084;19.300;2023-02-28T16:19:19;16.75;;;8.13;;
57111;SDS011;42992;49.084;19.300;2023-02-28T16:21:44;21.48;;;9.13;;
57111;SDS011;42992;49.084;19.300;2023-02-28T16:24:10;27.80;;;10.05;;
57111;SDS011;42992;49.084;19.300;2023-02-28T16:26:35;24.73;;;10.63;;
57111;SDS011;42992;49.084;19.300;2023-02-28T16:29:02;19.80;;;11.52;;
57111;SDS011;42992;49.084;19.300;2023-02-28T16:31:28;22.38;;;12.02;;
57111;SDS011;42992;49.084;19.300;2023-02-28T16:33:53;21.25;;;10.25;;
57111;SDS011;42992;49.084;19.300;2023-02-28T16:36:23;20.42;;;10.27;;
57111;SDS011;42992;49.084;19.300;2023-02-28T16:38:52;25.40;;;10.20;;
57111;SDS011;42992;49.084;19.300;2023-02-28T16:41:19;20.65;;;10.18;;
57111;SDS011;42992;49.084;19.300;2023-02-28T16:43:46;21.90;;;10.35;;
57111;SDS011;42992;49.084;19.300;2023-02-28T16:46:12;20.95;;;10.23;;
57111;SDS011;42992;49.084;19.300;2023-02-28T16:48:38;21.23;;;10.63;;
57111;SDS011;42992;49.084;19.300;2023-02-28T16:51:06;21.25;;;10.48;;
57111;SDS011;42992;49.084;19.300;2023-02-28T16:53:31;20.45;;;10.10;;
57111;SDS011;42992;49.084;19.300;2023-02-28T16:55:57;19.27;;;9.70;;